sensor_id;sensor_type;location;lat;lon;timestamp;temperature;humidity
42421;DHT22;28063;48.140;11.588;2022-10-16T00:01:29;13.10;99.90
42421;DHT22;28063;48.140;11.588;2022-10-16T00:03:57;13.00;99.90
42421;DHT22;28063;48.140;11.588;2022-10-16T00:06:25;13.00;99.90
42421;DHT22;28063;48.140;11.588;2022-10-16T00:08:51;13.00;99.90
42421;DHT22;28063;48.140;11.588;2022-10-16T00:11:26;13.00;99.90
42421;DHT22;28063;48.140;11.588;2022-10-16T00:13:58;13.00;99.90
42421;DHT22;28063;48.140;11.588;2022-10-16T00:16:24;12.90;99.90
42421;DHT22;28063;48.140;11.588;2022-10-16T00:18:50;12.90;99.90
42421;DHT22;28063;48.140;11.588;2022-10-16T00:21:19;12.90;99.90
42421;DHT22;28063;48.140;11.588;2022-10-16T00:23:46;12.90;99.90
42421;DHT22;28063;48.140;11.588;2022-10-16T00:26:15;12.90;99.90
42421;DHT22;28063;48.140;11.588;2022-10-16T00:28:41;12.90;99.90
42421;DHT22;28063;48.140;11.588;2022-10-16T00:31:10;12.90;99.90
42421;DHT22;28063;48.140;11.588;2022-10-16T00:33:38;12.80;99.90
42421;DHT22;28063;48.140;11.588;2022-10-16T00:36:05;12.80;99.90
42421;DHT22;28063;48.140;11.588;2022-10-16T00:38:31;12.80;99.90
42421;DHT22;28063;48.140;11.588;2022-10-16T00:40:57;12.80;99.90
42421;DHT22;28063;48.140;11.588;2022-10-16T00:43:43;12.80;99.90
42421;DHT22;28063;48.140;11.588;2022-10-16T00:49:08;12.70;99.90
42421;DHT22;28063;48.140;11.588;2022-10-16T00:51:38;12.70;99.90
42421;DHT22;28063;48.140;11.588;2022-10-16T00:54:08;12.70;99.90
42421;DHT22;28063;48.140;11.588;2022-10-16T00:56:35;12.70;99.90
42421;DHT22;28063;48.140;11.588;2022-10-16T00:59:04;12.70;99.90
42421;DHT22;28063;48.140;11.588;2022-10-16T01:01:31;12.70;99.90
42421;DHT22;28063;48.140;11.588;2022-10-16T01:03:57;12.70;99.90
42421;DHT22;28063;48.140;11.588;2022-10-16T01:06:55;12.70;99.90
42421;DHT22;28063;48.140;11.588;2022-10-16T01:09:30;12.70;99.90
42421;DHT22;28063;48.140;11.588;2022-10-16T01:12:10;12.70;99.90
42421;DHT22;28063;48.140;11.588;2022-10-16T01:14:47;12.70;99.90
42421;DHT22;28063;48.140;11.588;2022-10-16T01:20:16;12.70;99.90
42421;DHT22;28063;48.140;11.588;2022-10-16T01:31:19;12.70;99.90
42421;DHT22;28063;48.140;11.588;2022-10-16T01:33:50;12.60;99.90
42421;DHT22;28063;48.140;11.588;2022-10-16T01:36:23;12.60;99.90
42421;DHT22;28063;48.140;11.588;2022-10-16T01:38:51;12.60;99.90
42421;DHT22;28063;48.140;11.588;2022-10-16T01:41:36;12.60;99.90
42421;DHT22;28063;48.140;11.588;2022-10-16T01:44:17;12.60;99.90
42421;DHT22;28063;48.140;11.588;2022-10-16T01:46:46;12.60;99.90
42421;DHT22;28063;48.140;11.588;2022-10-16T01:49:12;12.60;99.90
42421;DHT22;28063;48.140;11.588;2022-10-16T01:51:39;12.60;99.90
42421;DHT22;28063;48.140;11.588;2022-10-16T01:54:08;12.60;99.90
42421;DHT22;28063;48.140;11.588;2022-10-16T01:56:34;12.60;99.90
42421;DHT22;28063;48.140;11.588;2022-10-16T01:59:09;12.60;99.90
42421;DHT22;28063;48.140;11.588;2022-10-16T02:01:38;12.60;99.90
42421;DHT22;28063;48.140;11.588;2022-10-16T02:04:18;12.60;99.90
42421;DHT22;28063;48.140;11.588;2022-10-16T02:06:44;12.60;99.90
42421;DHT22;28063;48.140;11.588;2022-10-16T02:09:10;12.60;99.90
42421;DHT22;28063;48.140;11.588;2022-10-16T02:11:36;12.60;99.90
42421;DHT22;28063;48.140;11.588;2022-10-16T02:14:04;12.60;99.90
42421;DHT22;28063;48.140;11.588;2022-10-16T02:16:39;12.60;99.90
42421;DHT22;28063;48.140;11.588;2022-10-16T02:19:06;12.70;99.90
42421;DHT22;28063;48.140;11.588;2022-10-16T02:21:54;12.60;99.90
42421;DHT22;28063;48.140;11.588;2022-10-16T02:24:59;12.60;99.90
42421;DHT22;28063;48.140;11.588;2022-10-16T02:27:34;12.60;99.90
42421;DHT22;28063;48.140;11.588;2022-10-16T02:30:20;12.60;99.90
42421;DHT22;28063;48.140;11.588;2022-10-16T02:32:48;12.60;99.90
42421;DHT22;28063;48.140;11.588;2022-10-16T02:35:17;12.60;99.90
42421;DHT22;28063;48.140;11.588;2022-10-16T02:37:45;12.60;99.90
42421;DHT22;28063;48.140;11.588;2022-10-16T02:40:12;12.50;99.90
42421;DHT22;28063;48.140;11.588;2022-10-16T02:42:39;12.50;99.90
42421;DHT22;28063;48.140;11.588;2022-10-16T02:45:07;12.50;99.90
42421;DHT22;28063;48.140;11.588;2022-10-16T02:47:33;12.50;99.90
42421;DHT22;28063;48.140;11.588;2022-10-16T02:49:59;12.50;99.90
42421;DHT22;28063;48.140;11.588;2022-10-16T02:52:24;12.40;99.90
42421;DHT22;28063;48.140;11.588;2022-10-16T02:54:50;12.40;99.90
42421;DHT22;28063;48.140;11.588;2022-10-16T02:57:17;12.40;99.90
42421;DHT22;28063;48.140;11.588;2022-10-16T02:59:43;12.30;99.90
42421;DHT22;28063;48.140;11.588;2022-10-16T03:02:09;12.30;99.90
42421;DHT22;28063;48.140;11.588;2022-10-16T03:04:35;12.30;99.90
42421;DHT22;28063;48.140;11.588;2022-10-16T03:07:00;12.30;99.90
42421;DHT22;28063;48.140;11.588;2022-10-16T03:09:26;12.20;99.90
42421;DHT22;28063;48.140;11.588;2022-10-16T03:11:51;12.20;99.90
42421;DHT22;28063;48.140;11.588;2022-10-16T03:14:17;12.20;99.90
42421;DHT22;28063;48.140;11.588;2022-10-16T03:16:43;12.20;99.90
42421;DHT22;28063;48.140;11.588;2022-10-16T03:19:09;12.10;99.90
42421;DHT22;28063;48.140;11.588;2022-10-16T03:21:34;12.10;99.90
42421;DHT22;28063;48.140;11.588;2022-10-16T03:24:00;12.10;99.90
42421;DHT22;28063;48.140;11.588;2022-10-16T03:26:26;12.10;99.90
42421;DHT22;28063;48.140;11.588;2022-10-16T03:28:51;12.10;99.90
42421;DHT22;28063;48.140;11.588;2022-10-16T03:31:17;12.10;99.90
42421;DHT22;28063;48.140;11.588;2022-10-16T03:33:43;12.10;99.90
42421;DHT22;28063;48.140;11.588;2022-10-16T03:36:23;12.10;99.90
42421;DHT22;28063;48.140;11.588;2022-10-16T03:39:23;12.20;99.90
42421;DHT22;28063;48.140;11.588;2022-10-16T03:41:49;12.20;99.90
42421;DHT22;28063;48.140;11.588;2022-10-16T03:44:17;12.30;99.90
42421;DHT22;28063;48.140;11.588;2022-10-16T03:46:47;12.30;99.90
42421;DHT22;28063;48.140;11.588;2022-10-16T03:49:15;12.40;99.90
42421;DHT22;28063;48.140;11.588;2022-10-16T03:51:46;12.40;99.90
42421;DHT22;28063;48.140;11.588;2022-10-16T03:54:47;12.50;99.90
42421;DHT22;28063;48.140;11.588;2022-10-16T03:57:12;12.60;99.90
42421;DHT22;28063;48.140;11.588;2022-10-16T03:59:38;12.60;99.90
42421;DHT22;28063;48.140;11.588;2022-10-16T04:02:04;12.70;99.90
42421;DHT22;28063;48.140;11.588;2022-10-16T04:04:29;12.70;99.90
42421;DHT22;28063;48.140;11.588;2022-10-16T04:06:55;12.70;99.90
42421;DHT22;28063;48.140;11.588;2022-10-16T04:09:21;12.80;99.90
42421;DHT22;28063;48.140;11.588;2022-10-16T04:11:46;12.80;99.90
42421;DHT22;28063;48.140;11.588;2022-10-16T04:14:12;12.80;99.90
42421;DHT22;28063;48.140;11.588;2022-10-16T04:16:38;12.80;99.90
42421;DHT22;28063;48.140;11.588;2022-10-16T04:19:04;12.90;99.90
42421;DHT22;28063;48.140;11.588;2022-10-16T04:21:29;12.90;99.90
42421;DHT22;28063;48.140;11.588;2022-10-16T04:23:55;12.90;99.90
42421;DHT22;28063;48.140;11.588;2022-10-16T04:26:20;13.00;99.90
42421;DHT22;28063;48.140;11.588;2022-10-16T04:28:46;13.00;99.90
42421;DHT22;28063;48.140;11.588;2022-10-16T04:31:12;13.00;99.90
42421;DHT22;28063;48.140;11.588;2022-10-16T04:33:37;13.00;99.90
42421;DHT22;28063;48.140;11.588;2022-10-16T04:36:04;13.00;99.90
42421;DHT22;28063;48.140;11.588;2022-10-16T04:38:29;13.00;99.90
42421;DHT22;28063;48.140;11.588;2022-10-16T04:40:55;13.00;99.90
42421;DHT22;28063;48.140;11.588;2022-10-16T04:43:22;13.00;99.90
42421;DHT22;28063;48.140;11.588;2022-10-16T04:45:47;13.00;99.90
42421;DHT22;28063;48.140;11.588;2022-10-16T04:48:15;13.00;99.90
42421;DHT22;28063;48.140;11.588;2022-10-16T04:50:41;13.10;99.90
42421;DHT22;28063;48.140;11.588;2022-10-16T04:53:07;13.00;99.90
42421;DHT22;28063;48.140;11.588;2022-10-16T04:55:32;13.10;99.90
42421;DHT22;28063;48.140;11.588;2022-10-16T04:57:58;13.10;99.90
42421;DHT22;28063;48.140;11.588;2022-10-16T05:00:24;13.10;99.90
42421;DHT22;28063;48.140;11.588;2022-10-16T05:02:50;13.10;99.90
42421;DHT22;28063;48.140;11.588;2022-10-16T05:05:16;13.10;99.90
42421;DHT22;28063;48.140;11.588;2022-10-16T05:07:42;13.10;99.90
42421;DHT22;28063;48.140;11.588;2022-10-16T05:10:08;13.10;99.90
42421;DHT22;28063;48.140;11.588;2022-10-16T05:12:33;13.10;99.90
42421;DHT22;28063;48.140;11.588;2022-10-16T05:14:59;13.10;99.90
42421;DHT22;28063;48.140;11.588;2022-10-16T05:17:25;13.10;99.90
42421;DHT22;28063;48.140;11.588;2022-10-16T05:19:51;13.10;99.90
42421;DHT22;28063;48.140;11.588;2022-10-16T05:22:17;13.10;99.90
42421;DHT22;28063;48.140;11.588;2022-10-16T05:24:42;13.10;99.90
42421;DHT22;28063;48.140;11.588;2022-10-16T05:27:08;13.10;99.90
42421;DHT22;28063;48.140;11.588;2022-10-16T05:29:34;13.20;99.90
42421;DHT22;28063;48.140;11.588;2022-10-16T05:32:00;13.20;99.90
42421;DHT22;28063;48.140;11.588;2022-10-16T05:34:26;13.20;99.90
42421;DHT22;28063;48.140;11.588;2022-10-16T05:36:51;13.20;99.90
42421;DHT22;28063;48.140;11.588;2022-10-16T05:39:17;13.20;99.90
42421;DHT22;28063;48.140;11.588;2022-10-16T05:41:43;13.20;99.90
42421;DHT22;28063;48.140;11.588;2022-10-16T05:44:09;13.20;99.90
42421;DHT22;28063;48.140;11.588;2022-10-16T05:46:35;13.20;99.90
42421;DHT22;28063;48.140;11.588;2022-10-16T05:49:00;13.20;99.90
42421;DHT22;28063;48.140;11.588;2022-10-16T05:51:26;13.20;99.90
42421;DHT22;28063;48.140;11.588;2022-10-16T05:53:52;13.20;99.90
42421;DHT22;28063;48.140;11.588;2022-10-16T05:56:18;13.20;99.90
42421;DHT22;28063;48.140;11.588;2022-10-16T05:58:43;13.20;99.90
42421;DHT22;28063;48.140;11.588;2022-10-16T06:01:14;13.20;99.90
42421;DHT22;28063;48.140;11.588;2022-10-16T06:03:40;13.10;99.90
42421;DHT22;28063;48.140;11.588;2022-10-16T06:06:15;13.10;99.90
42421;DHT22;28063;48.140;11.588;2022-10-16T06:08:42;13.10;99.90
42421;DHT22;28063;48.140;11.588;2022-10-16T06:11:11;13.00;99.90
42421;DHT22;28063;48.140;11.588;2022-10-16T06:13:37;13.00;99.90
42421;DHT22;28063;48.140;11.588;2022-10-16T06:16:04;13.00;99.90
42421;DHT22;28063;48.140;11.588;2022-10-16T06:18:30;13.00;99.90
42421;DHT22;28063;48.140;11.588;2022-10-16T06:20:57;13.00;99.90
42421;DHT22;28063;48.140;11.588;2022-10-16T06:23:24;13.00;99.90
42421;DHT22;28063;48.140;11.588;2022-10-16T06:25:49;13.00;99.90
42421;DHT22;28063;48.140;11.588;2022-10-16T06:28:15;13.10;99.90
42421;DHT22;28063;48.140;11.588;2022-10-16T06:30:41;13.10;99.90
42421;DHT22;28063;48.140;11.588;2022-10-16T06:33:10;13.10;99.90
42421;DHT22;28063;48.140;11.588;2022-10-16T06:35:36;13.20;99.90
42421;DHT22;28063;48.140;11.588;2022-10-16T06:38:02;13.20;99.90
42421;DHT22;28063;48.140;11.588;2022-10-16T06:40:29;13.30;99.90
42421;DHT22;28063;48.140;11.588;2022-10-16T06:42:55;13.40;99.90
42421;DHT22;28063;48.140;11.588;2022-10-16T06:45:21;13.40;99.90
42421;DHT22;28063;48.140;11.588;2022-10-16T06:47:46;13.50;99.90
42421;DHT22;28063;48.140;11.588;2022-10-16T06:50:15;13.50;99.90
42421;DHT22;28063;48.140;11.588;2022-10-16T06:52:41;13.60;99.90
42421;DHT22;28063;48.140;11.588;2022-10-16T06:55:07;13.60;99.90
42421;DHT22;28063;48.140;11.588;2022-10-16T06:57:33;13.60;99.90
42421;DHT22;28063;48.140;11.588;2022-10-16T06:59:58;13.50;99.90
42421;DHT22;28063;48.140;11.588;2022-10-16T07:02:24;13.50;99.90
42421;DHT22;28063;48.140;11.588;2022-10-16T07:04:49;13.50;99.90
42421;DHT22;28063;48.140;11.588;2022-10-16T07:07:15;13.50;99.90
42421;DHT22;28063;48.140;11.588;2022-10-16T07:09:41;13.60;99.90
42421;DHT22;28063;48.140;11.588;2022-10-16T07:12:06;13.60;99.90
42421;DHT22;28063;48.140;11.588;2022-10-16T07:14:35;13.60;99.90
42421;DHT22;28063;48.140;11.588;2022-10-16T07:17:01;13.70;99.90
42421;DHT22;28063;48.140;11.588;2022-10-16T07:19:27;13.80;99.90
42421;DHT22;28063;48.140;11.588;2022-10-16T07:21:53;13.90;99.90
42421;DHT22;28063;48.140;11.588;2022-10-16T07:24:19;14.10;99.90
42421;DHT22;28063;48.140;11.588;2022-10-16T07:26:47;14.20;99.90
42421;DHT22;28063;48.140;11.588;2022-10-16T07:29:17;14.20;99.90
42421;DHT22;28063;48.140;11.588;2022-10-16T07:31:43;14.20;99.90
42421;DHT22;28063;48.140;11.588;2022-10-16T07:34:10;14.30;99.90
42421;DHT22;28063;48.140;11.588;2022-10-16T07:36:36;14.40;99.90
42421;DHT22;28063;48.140;11.588;2022-10-16T07:39:02;14.50;99.90
42421;DHT22;28063;48.140;11.588;2022-10-16T07:41:28;14.70;99.90
42421;DHT22;28063;48.140;11.588;2022-10-16T07:43:54;14.90;99.90
42421;DHT22;28063;48.140;11.588;2022-10-16T07:46:21;15.10;99.90
42421;DHT22;28063;48.140;11.588;2022-10-16T07:48:48;15.30;99.90
42421;DHT22;28063;48.140;11.588;2022-10-16T07:51:16;15.60;99.90
42421;DHT22;28063;48.140;11.588;2022-10-16T07:53:42;15.70;99.90
42421;DHT22;28063;48.140;11.588;2022-10-16T07:56:08;15.80;99.90
42421;DHT22;28063;48.140;11.588;2022-10-16T07:58:35;16.00;99.90
42421;DHT22;28063;48.140;11.588;2022-10-16T08:01:06;16.10;99.90
42421;DHT22;28063;48.140;11.588;2022-10-16T08:03:32;16.10;99.90
42421;DHT22;28063;48.140;11.588;2022-10-16T08:05:58;16.20;99.90
42421;DHT22;28063;48.140;11.588;2022-10-16T08:08:24;16.40;99.90
42421;DHT22;28063;48.140;11.588;2022-10-16T08:10:50;16.70;99.90
42421;DHT22;28063;48.140;11.588;2022-10-16T08:13:15;17.00;99.90
42421;DHT22;28063;48.140;11.588;2022-10-16T08:15:45;17.40;99.10
42421;DHT22;28063;48.140;11.588;2022-10-16T08:18:12;17.60;98.20
42421;DHT22;28063;48.140;11.588;2022-10-16T08:20:39;18.00;97.30
42421;DHT22;28063;48.140;11.588;2022-10-16T08:23:05;18.20;96.20
42421;DHT22;28063;48.140;11.588;2022-10-16T08:25:35;18.50;95.10
42421;DHT22;28063;48.140;11.588;2022-10-16T08:28:08;18.70;94.10
42421;DHT22;28063;48.140;11.588;2022-10-16T08:30:34;18.90;93.10
42421;DHT22;28063;48.140;11.588;2022-10-16T08:33:01;19.10;92.20
42421;DHT22;28063;48.140;11.588;2022-10-16T08:35:26;19.30;91.30
42421;DHT22;28063;48.140;11.588;2022-10-16T08:37:52;19.50;90.40
42421;DHT22;28063;48.140;11.588;2022-10-16T08:40:19;19.60;89.70
42421;DHT22;28063;48.140;11.588;2022-10-16T08:51:19;20.40;83.10
42421;DHT22;28063;48.140;11.588;2022-10-16T08:53:58;20.60;81.70
42421;DHT22;28063;48.140;11.588;2022-10-16T08:56:26;20.80;80.90
42421;DHT22;28063;48.140;11.588;2022-10-16T08:58:53;21.00;80.00
42421;DHT22;28063;48.140;11.588;2022-10-16T09:01:21;21.20;78.80
42421;DHT22;28063;48.140;11.588;2022-10-16T09:12:33;21.80;75.20
42421;DHT22;28063;48.140;11.588;2022-10-16T09:18:15;22.10;74.00
42421;DHT22;28063;48.140;11.588;2022-10-16T09:21:48;22.20;73.50
42421;DHT22;28063;48.140;11.588;2022-10-16T09:23:43;22.30;72.90
42421;DHT22;28063;48.140;11.588;2022-10-16T09:26:12;22.40;72.70
42421;DHT22;28063;48.140;11.588;2022-10-16T09:28:38;22.50;72.00
42421;DHT22;28063;48.140;11.588;2022-10-16T09:31:04;22.60;70.90
42421;DHT22;28063;48.140;11.588;2022-10-16T09:33:35;22.70;69.40
42421;DHT22;28063;48.140;11.588;2022-10-16T09:36:03;22.70;67.90
42421;DHT22;28063;48.140;11.588;2022-10-16T09:38:33;22.70;67.70
42421;DHT22;28063;48.140;11.588;2022-10-16T09:41:02;22.70;67.80
42421;DHT22;28063;48.140;11.588;2022-10-16T09:43:39;22.80;67.60
42421;DHT22;28063;48.140;11.588;2022-10-16T09:46:08;22.90;66.20
42421;DHT22;28063;48.140;11.588;2022-10-16T09:48:43;22.90;65.60
42421;DHT22;28063;48.140;11.588;2022-10-16T09:51:22;23.00;65.10
42421;DHT22;28063;48.140;11.588;2022-10-16T09:53:53;23.00;65.10
42421;DHT22;28063;48.140;11.588;2022-10-16T09:56:31;23.10;65.20
42421;DHT22;28063;48.140;11.588;2022-10-16T09:59:44;23.20;65.00
42421;DHT22;28063;48.140;11.588;2022-10-16T10:01:53;23.30;65.10
42421;DHT22;28063;48.140;11.588;2022-10-16T10:04:23;23.30;64.70
42421;DHT22;28063;48.140;11.588;2022-10-16T10:06:51;23.40;64.00
42421;DHT22;28063;48.140;11.588;2022-10-16T10:09:37;23.40;63.10
42421;DHT22;28063;48.140;11.588;2022-10-16T10:12:20;23.50;62.30
42421;DHT22;28063;48.140;11.588;2022-10-16T10:14:53;23.60;61.40
42421;DHT22;28063;48.140;11.588;2022-10-16T10:17:23;23.70;61.20
42421;DHT22;28063;48.140;11.588;2022-10-16T10:19:54;23.80;60.70
42421;DHT22;28063;48.140;11.588;2022-10-16T10:22:31;23.80;60.00
42421;DHT22;28063;48.140;11.588;2022-10-16T10:30:48;24.00;58.20
42421;DHT22;28063;48.140;11.588;2022-10-16T10:36:07;24.00;58.50
42421;DHT22;28063;48.140;11.588;2022-10-16T10:47:01;24.10;57.70
42421;DHT22;28063;48.140;11.588;2022-10-16T10:55:29;24.30;56.90
42421;DHT22;28063;48.140;11.588;2022-10-16T11:00:45;24.50;56.40
42421;DHT22;28063;48.140;11.588;2022-10-16T11:05:59;24.50;56.40
42421;DHT22;28063;48.140;11.588;2022-10-16T11:08:38;24.50;56.40
42421;DHT22;28063;48.140;11.588;2022-10-16T11:11:17;24.50;55.60
42421;DHT22;28063;48.140;11.588;2022-10-16T11:14:00;24.30;55.70
42421;DHT22;28063;48.140;11.588;2022-10-16T11:16:32;24.40;56.00
42421;DHT22;28063;48.140;11.588;2022-10-16T11:25:20;24.60;55.70
42421;DHT22;28063;48.140;11.588;2022-10-16T11:30:55;24.70;55.00
42421;DHT22;28063;48.140;11.588;2022-10-16T11:36:23;24.70;52.60
42421;DHT22;28063;48.140;11.588;2022-10-16T11:39:28;24.80;53.10
42421;DHT22;28063;48.140;11.588;2022-10-16T11:45:26;24.80;52.80
42421;DHT22;28063;48.140;11.588;2022-10-16T11:48:11;24.90;52.90
42421;DHT22;28063;48.140;11.588;2022-10-16T11:50:45;25.00;52.10
42421;DHT22;28063;48.140;11.588;2022-10-16T11:56:19;25.10;49.30
42421;DHT22;28063;48.140;11.588;2022-10-16T12:08:51;25.70;47.80
42421;DHT22;28063;48.140;11.588;2022-10-16T12:14:19;26.00;47.40
42421;DHT22;28063;48.140;11.588;2022-10-16T12:16:57;26.30;46.40
42421;DHT22;28063;48.140;11.588;2022-10-16T12:19:25;26.50;46.90
42421;DHT22;28063;48.140;11.588;2022-10-16T12:24:42;26.20;47.50
42421;DHT22;28063;48.140;11.588;2022-10-16T12:30:04;25.40;48.10
42421;DHT22;28063;48.140;11.588;2022-10-16T12:32:36;25.20;48.00
42421;DHT22;28063;48.140;11.588;2022-10-16T12:35:03;25.30;49.20
42421;DHT22;28063;48.140;11.588;2022-10-16T12:37:34;25.30;49.80
42421;DHT22;28063;48.140;11.588;2022-10-16T12:40:14;25.30;50.20
42421;DHT22;28063;48.140;11.588;2022-10-16T12:42:40;25.40;49.90
42421;DHT22;28063;48.140;11.588;2022-10-16T12:45:29;25.40;50.40
42421;DHT22;28063;48.140;11.588;2022-10-16T12:47:57;25.40;50.60
42421;DHT22;28063;48.140;11.588;2022-10-16T12:50:33;25.40;50.90
42421;DHT22;28063;48.140;11.588;2022-10-16T12:53:01;25.40;51.00
42421;DHT22;28063;48.140;11.588;2022-10-16T12:55:33;25.50;50.50
42421;DHT22;28063;48.140;11.588;2022-10-16T12:58:18;25.50;50.00
42421;DHT22;28063;48.140;11.588;2022-10-16T13:00:53;25.50;50.30
42421;DHT22;28063;48.140;11.588;2022-10-16T13:27:59;26.70;48.50
42421;DHT22;28063;48.140;11.588;2022-10-16T13:30:55;26.90;48.00
42421;DHT22;28063;48.140;11.588;2022-10-16T13:35:57;27.10;47.30
42421;DHT22;28063;48.140;11.588;2022-10-16T13:38:25;26.80;47.60
42421;DHT22;28063;48.140;11.588;2022-10-16T13:40:53;26.70;47.70
42421;DHT22;28063;48.140;11.588;2022-10-16T13:43:23;26.60;47.90
42421;DHT22;28063;48.140;11.588;2022-10-16T13:45:59;26.50;48.30
42421;DHT22;28063;48.140;11.588;2022-10-16T13:48:25;26.30;48.50
42421;DHT22;28063;48.140;11.588;2022-10-16T13:53:34;26.20;49.10
42421;DHT22;28063;48.140;11.588;2022-10-16T13:56:02;26.20;48.80
42421;DHT22;28063;48.140;11.588;2022-10-16T13:58:28;25.90;48.80
42421;DHT22;28063;48.140;11.588;2022-10-16T14:01:06;25.80;48.90
42421;DHT22;28063;48.140;11.588;2022-10-16T14:03:39;25.70;49.30
42421;DHT22;28063;48.140;11.588;2022-10-16T14:06:10;25.70;49.50
42421;DHT22;28063;48.140;11.588;2022-10-16T14:08:52;25.70;49.80
42421;DHT22;28063;48.140;11.588;2022-10-16T14:11:23;25.70;49.30
42421;DHT22;28063;48.140;11.588;2022-10-16T14:13:50;25.70;48.90
42421;DHT22;28063;48.140;11.588;2022-10-16T15:20:48;22.70;56.60
42421;DHT22;28063;48.140;11.588;2022-10-16T15:23:16;22.70;57.40
42421;DHT22;28063;48.140;11.588;2022-10-16T15:28:10;22.40;58.00
42421;DHT22;28063;48.140;11.588;2022-10-16T15:30:37;22.30;59.10
42421;DHT22;28063;48.140;11.588;2022-10-16T15:33:14;22.20;60.50
42421;DHT22;28063;48.140;11.588;2022-10-16T15:35:40;22.20;60.70
42421;DHT22;28063;48.140;11.588;2022-10-16T15:38:08;22.10;61.30
42421;DHT22;28063;48.140;11.588;2022-10-16T15:40:34;22.00;61.60
42421;DHT22;28063;48.140;11.588;2022-10-16T15:43:00;22.00;61.80
42421;DHT22;28063;48.140;11.588;2022-10-16T15:45:29;22.00;62.30
42421;DHT22;28063;48.140;11.588;2022-10-16T15:47:54;21.80;62.60
42421;DHT22;28063;48.140;11.588;2022-10-16T15:50:20;21.80;63.20
42421;DHT22;28063;48.140;11.588;2022-10-16T15:52:46;21.70;63.90
42421;DHT22;28063;48.140;11.588;2022-10-16T15:55:13;21.60;64.30
42421;DHT22;28063;48.140;11.588;2022-10-16T15:57:39;21.50;64.70
42421;DHT22;28063;48.140;11.588;2022-10-16T16:00:13;21.50;65.10
42421;DHT22;28063;48.140;11.588;2022-10-16T16:02:44;21.30;65.60
42421;DHT22;28063;48.140;11.588;2022-10-16T16:05:22;21.20;66.50
42421;DHT22;28063;48.140;11.588;2022-10-16T16:07:49;21.10;67.00
42421;DHT22;28063;48.140;11.588;2022-10-16T16:10:16;21.00;67.50
42421;DHT22;28063;48.140;11.588;2022-10-16T16:12:42;20.90;68.10
42421;DHT22;28063;48.140;11.588;2022-10-16T16:15:08;20.80;68.70
42421;DHT22;28063;48.140;11.588;2022-10-16T16:17:35;20.70;69.20
42421;DHT22;28063;48.140;11.588;2022-10-16T16:20:01;20.60;69.80
42421;DHT22;28063;48.140;11.588;2022-10-16T16:22:27;20.50;70.30
42421;DHT22;28063;48.140;11.588;2022-10-16T16:24:53;20.40;70.80
42421;DHT22;28063;48.140;11.588;2022-10-16T16:27:19;20.30;71.20
42421;DHT22;28063;48.140;11.588;2022-10-16T16:29:46;20.20;71.60
42421;DHT22;28063;48.140;11.588;2022-10-16T16:32:11;20.10;72.20
42421;DHT22;28063;48.140;11.588;2022-10-16T16:34:37;19.90;73.00
42421;DHT22;28063;48.140;11.588;2022-10-16T16:37:03;19.80;73.70
42421;DHT22;28063;48.140;11.588;2022-10-16T16:39:28;19.70;74.10
42421;DHT22;28063;48.140;11.588;2022-10-16T16:41:56;19.60;74.70
42421;DHT22;28063;48.140;11.588;2022-10-16T16:44:24;19.50;75.30
42421;DHT22;28063;48.140;11.588;2022-10-16T16:46:50;19.40;76.00
42421;DHT22;28063;48.140;11.588;2022-10-16T16:49:16;19.30;76.80
42421;DHT22;28063;48.140;11.588;2022-10-16T16:51:42;19.20;77.40
42421;DHT22;28063;48.140;11.588;2022-10-16T16:54:10;19.10;78.10
42421;DHT22;28063;48.140;11.588;2022-10-16T16:56:36;19.00;78.80
42421;DHT22;28063;48.140;11.588;2022-10-16T16:59:01;19.00;79.00
42421;DHT22;28063;48.140;11.588;2022-10-16T17:01:28;18.90;79.50
42421;DHT22;28063;48.140;11.588;2022-10-16T17:03:56;18.80;80.10
42421;DHT22;28063;48.140;11.588;2022-10-16T17:06:24;18.80;80.60
42421;DHT22;28063;48.140;11.588;2022-10-16T17:08:51;18.70;81.20
42421;DHT22;28063;48.140;11.588;2022-10-16T17:11:19;18.70;81.60
42421;DHT22;28063;48.140;11.588;2022-10-16T17:13:45;18.70;82.00
42421;DHT22;28063;48.140;11.588;2022-10-16T17:16:11;18.70;82.40
42421;DHT22;28063;48.140;11.588;2022-10-16T17:18:37;18.60;82.70
42421;DHT22;28063;48.140;11.588;2022-10-16T17:21:06;18.60;83.10
42421;DHT22;28063;48.140;11.588;2022-10-16T17:23:33;18.50;83.50
42421;DHT22;28063;48.140;11.588;2022-10-16T17:26:06;18.40;84.00
42421;DHT22;28063;48.140;11.588;2022-10-16T17:28:32;18.40;84.60
42421;DHT22;28063;48.140;11.588;2022-10-16T17:31:25;18.30;85.40
42421;DHT22;28063;48.140;11.588;2022-10-16T17:33:51;18.20;86.40
42421;DHT22;28063;48.140;11.588;2022-10-16T17:36:18;18.20;87.10
42421;DHT22;28063;48.140;11.588;2022-10-16T17:38:45;18.20;87.30
42421;DHT22;28063;48.140;11.588;2022-10-16T17:41:19;18.20;87.60
42421;DHT22;28063;48.140;11.588;2022-10-16T17:43:46;18.10;88.00
42421;DHT22;28063;48.140;11.588;2022-10-16T17:46:14;18.10;88.60
42421;DHT22;28063;48.140;11.588;2022-10-16T17:48:42;18.00;89.10
42421;DHT22;28063;48.140;11.588;2022-10-16T17:51:09;17.90;89.80
42421;DHT22;28063;48.140;11.588;2022-10-16T17:53:36;17.80;90.30
42421;DHT22;28063;48.140;11.588;2022-10-16T17:56:06;17.70;90.70
42421;DHT22;28063;48.140;11.588;2022-10-16T17:58:32;17.70;91.10
42421;DHT22;28063;48.140;11.588;2022-10-16T18:00:58;17.60;91.50
42421;DHT22;28063;48.140;11.588;2022-10-16T18:03:24;17.60;91.80
42421;DHT22;28063;48.140;11.588;2022-10-16T18:05:52;17.50;92.00
42421;DHT22;28063;48.140;11.588;2022-10-16T18:08:18;17.50;92.40
42421;DHT22;28063;48.140;11.588;2022-10-16T18:10:48;17.50;92.70
42421;DHT22;28063;48.140;11.588;2022-10-16T18:13:15;17.50;92.80
42421;DHT22;28063;48.140;11.588;2022-10-16T18:15:42;17.50;93.00
42421;DHT22;28063;48.140;11.588;2022-10-16T18:18:08;17.50;93.10
42421;DHT22;28063;48.140;11.588;2022-10-16T18:20:36;17.40;93.30
42421;DHT22;28063;48.140;11.588;2022-10-16T18:23:02;17.40;93.60
42421;DHT22;28063;48.140;11.588;2022-10-16T18:25:27;17.30;93.90
42421;DHT22;28063;48.140;11.588;2022-10-16T18:27:53;17.30;94.30
42421;DHT22;28063;48.140;11.588;2022-10-16T18:30:24;17.20;94.60
42421;DHT22;28063;48.140;11.588;2022-10-16T18:32:51;17.20;94.90
42421;DHT22;28063;48.140;11.588;2022-10-16T18:35:18;17.20;95.10
42421;DHT22;28063;48.140;11.588;2022-10-16T18:37:44;17.10;95.20
42421;DHT22;28063;48.140;11.588;2022-10-16T18:40:09;17.10;95.40
42421;DHT22;28063;48.140;11.588;2022-10-16T18:42:35;17.10;95.70
42421;DHT22;28063;48.140;11.588;2022-10-16T18:45:01;17.00;95.90